sensor_id;sensor_type;location;lat;lon;timestamp;temperature;humidity
37412;DHT22;23278;52.110;6.050;2023-05-07T00:00:11;16.40;99.90
37412;DHT22;23278;52.110;6.050;2023-05-07T00:02:37;16.40;99.90
37412;DHT22;23278;52.110;6.050;2023-05-07T00:05:03;16.40;99.90
37412;DHT22;23278;52.110;6.050;2023-05-07T00:07:30;16.40;99.90
37412;DHT22;23278;52.110;6.050;2023-05-07T00:09:56;16.40;99.90
37412;DHT22;23278;52.110;6.050;2023-05-07T00:12:22;16.40;99.90
37412;DHT22;23278;52.110;6.050;2023-05-07T00:14:48;16.40;99.90
37412;DHT22;23278;52.110;6.050;2023-05-07T00:17:14;16.40;99.90
37412;DHT22;23278;52.110;6.050;2023-05-07T00:19:40;16.40;99.90
37412;DHT22;23278;52.110;6.050;2023-05-07T00:22:07;16.40;99.90
37412;DHT22;23278;52.110;6.050;2023-05-07T00:24:33;16.30;99.90
37412;DHT22;23278;52.110;6.050;2023-05-07T00:27:00;16.40;99.90
37412;DHT22;23278;52.110;6.050;2023-05-07T00:29:26;16.30;99.90
37412;DHT22;23278;52.110;6.050;2023-05-07T00:31:52;16.40;99.90
37412;DHT22;23278;52.110;6.050;2023-05-07T00:34:20;16.30;99.90
37412;DHT22;23278;52.110;6.050;2023-05-07T00:36:46;16.30;99.90
37412;DHT22;23278;52.110;6.050;2023-05-07T00:39:12;16.30;99.90
37412;DHT22;23278;52.110;6.050;2023-05-07T00:41:38;16.30;99.90
37412;DHT22;23278;52.110;6.050;2023-05-07T00:44:04;16.20;99.90
37412;DHT22;23278;52.110;6.050;2023-05-07T00:46:31;16.20;99.90
37412;DHT22;23278;52.110;6.050;2023-05-07T00:48:58;16.20;99.90
37412;DHT22;23278;52.110;6.050;2023-05-07T00:51:25;16.20;99.90
37412;DHT22;23278;52.110;6.050;2023-05-07T00:53:53;16.20;99.90
37412;DHT22;23278;52.110;6.050;2023-05-07T00:56:21;16.10;99.90
37412;DHT22;23278;52.110;6.050;2023-05-07T00:58:48;16.00;99.90
37412;DHT22;23278;52.110;6.050;2023-05-07T01:01:14;15.90;99.90
37412;DHT22;23278;52.110;6.050;2023-05-07T01:03:43;15.90;99.90
37412;DHT22;23278;52.110;6.050;2023-05-07T01:06:10;15.80;99.90
37412;DHT22;23278;52.110;6.050;2023-05-07T01:08:39;15.80;99.90
37412;DHT22;23278;52.110;6.050;2023-05-07T01:11:10;15.80;99.90
37412;DHT22;23278;52.110;6.050;2023-05-07T01:13:38;15.70;99.90
37412;DHT22;23278;52.110;6.050;2023-05-07T01:16:05;15.60;99.90
37412;DHT22;23278;52.110;6.050;2023-05-07T01:18:32;15.50;99.90
37412;DHT22;23278;52.110;6.050;2023-05-07T01:20:58;15.50;99.90
37412;DHT22;23278;52.110;6.050;2023-05-07T01:23:27;15.40;99.90
37412;DHT22;23278;52.110;6.050;2023-05-07T01:25:54;15.40;99.90
37412;DHT22;23278;52.110;6.050;2023-05-07T01:28:22;15.30;99.90
37412;DHT22;23278;52.110;6.050;2023-05-07T01:30:55;15.30;99.90
37412;DHT22;23278;52.110;6.050;2023-05-07T01:33:23;15.20;99.90
37412;DHT22;23278;52.110;6.050;2023-05-07T01:35:53;15.20;99.90
37412;DHT22;23278;52.110;6.050;2023-05-07T01:38:21;15.10;99.90
37412;DHT22;23278;52.110;6.050;2023-05-07T01:40:48;15.10;99.90
37412;DHT22;23278;52.110;6.050;2023-05-07T01:43:14;15.20;99.90
37412;DHT22;23278;52.110;6.050;2023-05-07T01:45:41;15.20;99.90
37412;DHT22;23278;52.110;6.050;2023-05-07T01:48:10;15.20;99.90
37412;DHT22;23278;52.110;6.050;2023-05-07T01:50:37;15.20;99.90
37412;DHT22;23278;52.110;6.050;2023-05-07T01:53:03;15.30;99.90
37412;DHT22;23278;52.110;6.050;2023-05-07T01:55:29;15.30;99.90
37412;DHT22;23278;52.110;6.050;2023-05-07T01:57:56;15.30;99.90
37412;DHT22;23278;52.110;6.050;2023-05-07T02:00:22;15.30;99.90
37412;DHT22;23278;52.110;6.050;2023-05-07T02:02:48;15.30;99.90
37412;DHT22;23278;52.110;6.050;2023-05-07T02:05:24;15.30;99.90
37412;DHT22;23278;52.110;6.050;2023-05-07T02:07:57;15.40;99.90
37412;DHT22;23278;52.110;6.050;2023-05-07T02:10:25;15.30;99.90
37412;DHT22;23278;52.110;6.050;2023-05-07T02:12:51;15.40;99.90
37412;DHT22;23278;52.110;6.050;2023-05-07T02:15:17;15.40;99.90
37412;DHT22;23278;52.110;6.050;2023-05-07T02:18:04;15.40;99.90
37412;DHT22;23278;52.110;6.050;2023-05-07T02:20:31;15.30;99.90
37412;DHT22;23278;52.110;6.050;2023-05-07T02:22:57;15.30;99.90
37412;DHT22;23278;52.110;6.050;2023-05-07T02:25:24;15.30;99.90
37412;DHT22;23278;52.110;6.050;2023-05-07T02:27:50;15.20;99.90
37412;DHT22;23278;52.110;6.050;2023-05-07T02:30:17;15.20;99.90
37412;DHT22;23278;52.110;6.050;2023-05-07T02:32:43;15.20;99.90
37412;DHT22;23278;52.110;6.050;2023-05-07T02:35:10;15.20;99.90
37412;DHT22;23278;52.110;6.050;2023-05-07T02:37:36;15.20;99.90
37412;DHT22;23278;52.110;6.050;2023-05-07T02:40:02;15.20;99.90
37412;DHT22;23278;52.110;6.050;2023-05-07T02:42:30;15.20;99.90
37412;DHT22;23278;52.110;6.050;2023-05-07T02:44:56;15.20;99.90
37412;DHT22;23278;52.110;6.050;2023-05-07T02:47:22;15.20;99.90
37412;DHT22;23278;52.110;6.050;2023-05-07T02:49:48;15.20;99.90
37412;DHT22;23278;52.110;6.050;2023-05-07T02:52:15;15.20;99.90
37412;DHT22;23278;52.110;6.050;2023-05-07T02:54:41;15.10;99.90
37412;DHT22;23278;52.110;6.050;2023-05-07T02:57:07;15.10;99.90
37412;DHT22;23278;52.110;6.050;2023-05-07T02:59:33;15.10;99.90
37412;DHT22;23278;52.110;6.050;2023-05-07T03:01:59;15.10;99.90
37412;DHT22;23278;52.110;6.050;2023-05-07T03:04:25;15.10;99.90
37412;DHT22;23278;52.110;6.050;2023-05-07T03:06:51;15.10;99.90
37412;DHT22;23278;52.110;6.050;2023-05-07T03:09:17;15.10;99.90
37412;DHT22;23278;52.110;6.050;2023-05-07T03:11:43;15.10;99.90
37412;DHT22;23278;52.110;6.050;2023-05-07T03:14:09;15.10;99.90
37412;DHT22;23278;52.110;6.050;2023-05-07T03:16:35;15.10;99.90
37412;DHT22;23278;52.110;6.050;2023-05-07T03:19:01;15.10;99.90
37412;DHT22;23278;52.110;6.050;2023-05-07T03:21:28;15.10;99.90
37412;DHT22;23278;52.110;6.050;2023-05-07T03:23:54;15.10;99.90
37412;DHT22;23278;52.110;6.050;2023-05-07T03:26:20;15.10;99.90
37412;DHT22;23278;52.110;6.050;2023-05-07T03:28:47;15.10;99.90
37412;DHT22;23278;52.110;6.050;2023-05-07T03:31:15;15.10;99.90
37412;DHT22;23278;52.110;6.050;2023-05-07T03:33:56;15.10;99.90
37412;DHT22;23278;52.110;6.050;2023-05-07T03:36:23;15.10;99.90
37412;DHT22;23278;52.110;6.050;2023-05-07T03:38:50;15.10;99.90
37412;DHT22;23278;52.110;6.050;2023-05-07T03:41:19;15.10;99.90
37412;DHT22;23278;52.110;6.050;2023-05-07T03:43:46;15.10;99.90
37412;DHT22;23278;52.110;6.050;2023-05-07T03:46:13;15.10;99.90
37412;DHT22;23278;52.110;6.050;2023-05-07T03:48:40;15.10;99.90
37412;DHT22;23278;52.110;6.050;2023-05-07T03:51:06;15.10;99.90
37412;DHT22;23278;52.110;6.050;2023-05-07T03:53:33;15.10;99.90
37412;DHT22;23278;52.110;6.050;2023-05-07T03:56:00;15.10;99.90
37412;DHT22;23278;52.110;6.050;2023-05-07T03:58:27;15.10;99.90
37412;DHT22;23278;52.110;6.050;2023-05-07T04:00:57;15.00;99.90
37412;DHT22;23278;52.110;6.050;2023-05-07T04:03:26;15.00;99.90
37412;DHT22;23278;52.110;6.050;2023-05-07T04:05:55;15.00;99.90
37412;DHT22;23278;52.110;6.050;2023-05-07T04:08:22;15.10;99.90
37412;DHT22;23278;52.110;6.050;2023-05-07T04:10:56;15.10;99.90
37412;DHT22;23278;52.110;6.050;2023-05-07T04:13:24;15.10;99.90
37412;DHT22;23278;52.110;6.050;2023-05-07T04:15:51;15.10;99.90
37412;DHT22;23278;52.110;6.050;2023-05-07T04:18:18;15.10;99.90
37412;DHT22;23278;52.110;6.050;2023-05-07T04:20:47;15.10;99.90
37412;DHT22;23278;52.110;6.050;2023-05-07T04:23:16;15.10;99.90
37412;DHT22;23278;52.110;6.050;2023-05-07T04:25:42;15.10;99.90
37412;DHT22;23278;52.110;6.050;2023-05-07T04:28:32;15.10;99.90
37412;DHT22;23278;52.110;6.050;2023-05-07T04:30:58;15.10;99.90
37412;DHT22;23278;52.110;6.050;2023-05-07T04:33:25;15.20;99.90
37412;DHT22;23278;52.110;6.050;2023-05-07T04:35:51;15.20;99.90
37412;DHT22;23278;52.110;6.050;2023-05-07T04:38:17;15.20;99.90
37412;DHT22;23278;52.110;6.050;2023-05-07T04:40:45;15.30;99.90
37412;DHT22;23278;52.110;6.050;2023-05-07T04:43:16;15.30;99.90
37412;DHT22;23278;52.110;6.050;2023-05-07T04:45:47;15.30;99.90
37412;DHT22;23278;52.110;6.050;2023-05-07T04:48:15;15.30;99.90
37412;DHT22;23278;52.110;6.050;2023-05-07T04:50:42;15.30;99.90
37412;DHT22;23278;52.110;6.050;2023-05-07T04:53:08;15.30;99.90
37412;DHT22;23278;52.110;6.050;2023-05-07T04:55:35;15.40;99.90
37412;DHT22;23278;52.110;6.050;2023-05-07T04:58:02;15.40;99.90
37412;DHT22;23278;52.110;6.050;2023-05-07T05:00:32;15.40;99.90
37412;DHT22;23278;52.110;6.050;2023-05-07T05:02:58;15.50;99.90
37412;DHT22;23278;52.110;6.050;2023-05-07T05:05:24;15.50;99.90
37412;DHT22;23278;52.110;6.050;2023-05-07T05:07:53;15.60;99.90
37412;DHT22;23278;52.110;6.050;2023-05-07T05:10:19;15.60;99.90
37412;DHT22;23278;52.110;6.050;2023-05-07T05:12:45;15.60;99.90
37412;DHT22;23278;52.110;6.050;2023-05-07T05:15:12;15.60;99.90
37412;DHT22;23278;52.110;6.050;2023-05-07T05:17:39;15.70;99.90
37412;DHT22;23278;52.110;6.050;2023-05-07T05:20:06;15.70;99.90
37412;DHT22;23278;52.110;6.050;2023-05-07T05:22:33;15.70;99.90
37412;DHT22;23278;52.110;6.050;2023-05-07T05:25:01;15.70;99.90
37412;DHT22;23278;52.110;6.050;2023-05-07T05:27:27;15.70;99.90
37412;DHT22;23278;52.110;6.050;2023-05-07T05:29:53;15.80;99.90
37412;DHT22;23278;52.110;6.050;2023-05-07T05:32:19;15.80;99.90
37412;DHT22;23278;52.110;6.050;2023-05-07T05:34:46;15.90;99.90
37412;DHT22;23278;52.110;6.050;2023-05-07T05:37:12;15.90;99.90
37412;DHT22;23278;52.110;6.050;2023-05-07T05:39:38;16.00;99.90
37412;DHT22;23278;52.110;6.050;2023-05-07T05:42:05;16.00;99.90
37412;DHT22;23278;52.110;6.050;2023-05-07T05:44:33;16.00;99.90
37412;DHT22;23278;52.110;6.050;2023-05-07T05:47:00;16.00;99.90
37412;DHT22;23278;52.110;6.050;2023-05-07T05:49:26;16.00;99.90
37412;DHT22;23278;52.110;6.050;2023-05-07T05:51:53;16.10;99.90
37412;DHT22;23278;52.110;6.050;2023-05-07T05:54:20;16.00;99.90
37412;DHT22;23278;52.110;6.050;2023-05-07T05:56:47;16.10;99.90
37412;DHT22;23278;52.110;6.050;2023-05-07T05:59:14;16.10;99.90
37412;DHT22;23278;52.110;6.050;2023-05-07T06:01:40;16.20;99.90
37412;DHT22;23278;52.110;6.050;2023-05-07T06:04:06;16.20;99.90
37412;DHT22;23278;52.110;6.050;2023-05-07T06:06:33;16.20;99.90
37412;DHT22;23278;52.110;6.050;2023-05-07T06:09:00;16.30;99.90
37412;DHT22;23278;52.110;6.050;2023-05-07T06:11:34;16.30;99.90
37412;DHT22;23278;52.110;6.050;2023-05-07T06:14:00;16.30;99.90
37412;DHT22;23278;52.110;6.050;2023-05-07T06:16:27;16.30;99.90
37412;DHT22;23278;52.110;6.050;2023-05-07T06:18:53;16.30;99.90
37412;DHT22;23278;52.110;6.050;2023-05-07T06:21:19;16.30;99.90
37412;DHT22;23278;52.110;6.050;2023-05-07T06:23:45;16.20;99.90
37412;DHT22;23278;52.110;6.050;2023-05-07T06:26:12;16.20;99.90
37412;DHT22;23278;52.110;6.050;2023-05-07T06:28:41;16.20;99.90
37412;DHT22;23278;52.110;6.050;2023-05-07T06:31:15;16.30;99.90
37412;DHT22;23278;52.110;6.050;2023-05-07T06:33:45;16.30;99.90
37412;DHT22;23278;52.110;6.050;2023-05-07T06:36:12;16.30;99.90
37412;DHT22;23278;52.110;6.050;2023-05-07T06:38:39;16.40;99.90
37412;DHT22;23278;52.110;6.050;2023-05-07T06:41:06;16.40;99.90
37412;DHT22;23278;52.110;6.050;2023-05-07T06:43:32;16.40;99.90
37412;DHT22;23278;52.110;6.050;2023-05-07T06:46:17;16.40;99.90
37412;DHT22;23278;52.110;6.050;2023-05-07T06:48:43;16.50;99.90
37412;DHT22;23278;52.110;6.050;2023-05-07T06:51:09;16.50;99.90
37412;DHT22;23278;52.110;6.050;2023-05-07T06:53:35;16.50;99.90
37412;DHT22;23278;52.110;6.050;2023-05-07T06:56:03;16.50;99.90
37412;DHT22;23278;52.110;6.050;2023-05-07T06:58:29;16.50;99.90
37412;DHT22;23278;52.110;6.050;2023-05-07T07:00:55;16.50;99.90
37412;DHT22;23278;52.110;6.050;2023-05-07T07:03:22;16.50;99.90
37412;DHT22;23278;52.110;6.050;2023-05-07T07:05:52;16.50;99.90
37412;DHT22;23278;52.110;6.050;2023-05-07T07:08:18;16.50;99.90
37412;DHT22;23278;52.110;6.050;2023-05-07T07:10:47;16.50;99.90
37412;DHT22;23278;52.110;6.050;2023-05-07T07:13:13;16.40;99.90
37412;DHT22;23278;52.110;6.050;2023-05-07T07:15:39;16.40;99.90
37412;DHT22;23278;52.110;6.050;2023-05-07T07:18:06;16.40;99.90
37412;DHT22;23278;52.110;6.050;2023-05-07T07:20:33;16.30;99.90
37412;DHT22;23278;52.110;6.050;2023-05-07T07:22:59;16.40;99.90
37412;DHT22;23278;52.110;6.050;2023-05-07T07:25:26;16.50;99.90
37412;DHT22;23278;52.110;6.050;2023-05-07T07:27:52;16.60;99.90
37412;DHT22;23278;52.110;6.050;2023-05-07T07:30:20;16.60;99.90
37412;DHT22;23278;52.110;6.050;2023-05-07T07:32:48;16.70;99.90
37412;DHT22;23278;52.110;6.050;2023-05-07T07:35:14;16.90;99.90
37412;DHT22;23278;52.110;6.050;2023-05-07T07:37:41;17.10;99.90
37412;DHT22;23278;52.110;6.050;2023-05-07T07:40:07;17.30;99.90
37412;DHT22;23278;52.110;6.050;2023-05-07T07:42:35;17.50;99.90
37412;DHT22;23278;52.110;6.050;2023-05-07T07:45:02;17.60;99.90
37412;DHT22;23278;52.110;6.050;2023-05-07T07:47:32;17.80;99.90
37412;DHT22;23278;52.110;6.050;2023-05-07T07:49:58;17.90;99.90
37412;DHT22;23278;52.110;6.050;2023-05-07T07:52:24;18.00;99.90
37412;DHT22;23278;52.110;6.050;2023-05-07T07:54:50;18.20;99.90
37412;DHT22;23278;52.110;6.050;2023-05-07T07:57:16;18.30;99.90
37412;DHT22;23278;52.110;6.050;2023-05-07T07:59:42;18.40;99.90
37412;DHT22;23278;52.110;6.050;2023-05-07T08:02:10;18.50;99.90
37412;DHT22;23278;52.110;6.050;2023-05-07T08:04:37;18.60;99.90
37412;DHT22;23278;52.110;6.050;2023-05-07T08:07:05;18.70;99.90
37412;DHT22;23278;52.110;6.050;2023-05-07T08:09:34;18.80;99.90
37412;DHT22;23278;52.110;6.050;2023-05-07T08:12:02;19.00;99.90
37412;DHT22;23278;52.110;6.050;2023-05-07T08:14:32;19.10;99.90
37412;DHT22;23278;52.110;6.050;2023-05-07T08:16:58;19.30;99.90
37412;DHT22;23278;52.110;6.050;2023-05-07T08:19:24;19.40;99.90
37412;DHT22;23278;52.110;6.050;2023-05-07T08:21:50;19.60;99.90
37412;DHT22;23278;52.110;6.050;2023-05-07T08:24:17;19.70;99.90
37412;DHT22;23278;52.110;6.050;2023-05-07T08:26:45;19.90;99.60
37412;DHT22;23278;52.110;6.050;2023-05-07T08:29:11;20.00;99.20
37412;DHT22;23278;52.110;6.050;2023-05-07T08:31:37;20.30;99.00
37412;DHT22;23278;52.110;6.050;2023-05-07T08:34:06;20.50;98.80
37412;DHT22;23278;52.110;6.050;2023-05-07T08:36:35;20.70;98.50
37412;DHT22;23278;52.110;6.050;2023-05-07T08:39:01;20.70;97.80
37412;DHT22;23278;52.110;6.050;2023-05-07T08:41:28;20.70;97.30
37412;DHT22;23278;52.110;6.050;2023-05-07T08:43:57;20.60;97.50
37412;DHT22;23278;52.110;6.050;2023-05-07T08:46:25;20.70;97.40
37412;DHT22;23278;52.110;6.050;2023-05-07T08:48:55;20.70;97.50
37412;DHT22;23278;52.110;6.050;2023-05-07T08:51:22;20.90;97.40
37412;DHT22;23278;52.110;6.050;2023-05-07T08:53:49;21.10;97.20
37412;DHT22;23278;52.110;6.050;2023-05-07T08:56:21;21.40;96.80
37412;DHT22;23278;52.110;6.050;2023-05-07T08:58:48;21.60;96.40
37412;DHT22;23278;52.110;6.050;2023-05-07T09:01:16;21.70;96.20
37412;DHT22;23278;52.110;6.050;2023-05-07T09:03:46;22.00;95.80
37412;DHT22;23278;52.110;6.050;2023-05-07T09:06:14;22.10;95.50
37412;DHT22;23278;52.110;6.050;2023-05-07T09:08:51;22.10;94.90
37412;DHT22;23278;52.110;6.050;2023-05-07T09:11:20;22.10;94.60
37412;DHT22;23278;52.110;6.050;2023-05-07T09:13:48;21.90;94.30
37412;DHT22;23278;52.110;6.050;2023-05-07T09:16:15;21.90;94.40
37412;DHT22;23278;52.110;6.050;2023-05-07T09:18:44;22.00;94.40
37412;DHT22;23278;52.110;6.050;2023-05-07T09:21:17;22.10;94.40
37412;DHT22;23278;52.110;6.050;2023-05-07T09:23:44;22.20;94.10
37412;DHT22;23278;52.110;6.050;2023-05-07T09:26:11;22.30;94.00
37412;DHT22;23278;52.110;6.050;2023-05-07T09:28:42;22.50;93.70
37412;DHT22;23278;52.110;6.050;2023-05-07T09:31:11;22.80;93.40
37412;DHT22;23278;52.110;6.050;2023-05-07T09:33:38;23.10;92.90
37412;DHT22;23278;52.110;6.050;2023-05-07T09:36:06;23.40;92.50
37412;DHT22;23278;52.110;6.050;2023-05-07T09:38:34;23.70;92.00
37412;DHT22;23278;52.110;6.050;2023-05-07T09:41:09;24.00;91.40
37412;DHT22;23278;52.110;6.050;2023-05-07T09:43:42;24.20;90.90
37412;DHT22;23278;52.110;6.050;2023-05-07T09:46:15;24.50;90.40
37412;DHT22;23278;52.110;6.050;2023-05-07T09:48:48;24.80;89.60
37412;DHT22;23278;52.110;6.050;2023-05-07T09:51:25;24.90;86.60
37412;DHT22;23278;52.110;6.050;2023-05-07T09:53:57;24.90;86.30
37412;DHT22;23278;52.110;6.050;2023-05-07T09:56:24;24.90;85.10
37412;DHT22;23278;52.110;6.050;2023-05-07T09:58:53;25.10;84.40
37412;DHT22;23278;52.110;6.050;2023-05-07T10:01:20;25.30;83.70
37412;DHT22;23278;52.110;6.050;2023-05-07T10:03:49;25.50;82.70
37412;DHT22;23278;52.110;6.050;2023-05-07T10:06:20;25.50;81.80
37412;DHT22;23278;52.110;6.050;2023-05-07T10:08:46;25.70;81.30
37412;DHT22;23278;52.110;6.050;2023-05-07T10:11:14;26.10;80.30
37412;DHT22;23278;52.110;6.050;2023-05-07T10:13:43;26.90;77.80
37412;DHT22;23278;52.110;6.050;2023-05-07T10:16:09;27.90;75.40
37412;DHT22;23278;52.110;6.050;2023-05-07T10:18:43;28.80;69.40
37412;DHT22;23278;52.110;6.050;2023-05-07T10:21:19;29.50;66.90
37412;DHT22;23278;52.110;6.050;2023-05-07T10:23:57;29.50;65.70
37412;DHT22;23278;52.110;6.050;2023-05-07T10:26:25;29.20;65.20
37412;DHT22;23278;52.110;6.050;2023-05-07T10:28:58;28.70;65.30
37412;DHT22;23278;52.110;6.050;2023-05-07T10:31:48;28.10;66.40
37412;DHT22;23278;52.110;6.050;2023-05-07T10:34:22;27.60;67.80
37412;DHT22;23278;52.110;6.050;2023-05-07T10:36:50;27.20;67.40
37412;DHT22;23278;52.110;6.050;2023-05-07T10:39:16;26.80;68.40
37412;DHT22;23278;52.110;6.050;2023-05-07T10:41:42;26.60;68.80
37412;DHT22;23278;52.110;6.050;2023-05-07T10:44:09;26.50;68.50
37412;DHT22;23278;52.110;6.050;2023-05-07T10:46:37;26.30;68.30
37412;DHT22;23278;52.110;6.050;2023-05-07T10:49:13;26.30;68.30
37412;DHT22;23278;52.110;6.050;2023-05-07T10:52:15;26.40;67.90
37412;DHT22;23278;52.110;6.050;2023-05-07T10:57:48;27.50;65.50
37412;DHT22;23278;52.110;6.050;2023-05-07T11:05:46;30.00;60.70
37412;DHT22;23278;52.110;6.050;2023-05-07T11:08:24;30.20;59.70
37412;DHT22;23278;52.110;6.050;2023-05-07T11:10:59;29.90;59.50
37412;DHT22;23278;52.110;6.050;2023-05-07T11:13:46;30.40;58.40
37412;DHT22;23278;52.110;6.050;2023-05-07T11:16:32;31.00;56.70
37412;DHT22;23278;52.110;6.050;2023-05-07T11:19:50;32.10;54.90
37412;DHT22;23278;52.110;6.050;2023-05-07T11:25:19;34.80;50.60
37412;DHT22;23278;52.110;6.050;2023-05-07T11:27:49;35.80;47.70
37412;DHT22;23278;52.110;6.050;2023-05-07T11:30:19;36.60;46.00
37412;DHT22;23278;52.110;6.050;2023-05-07T11:32:47;37.40;45.10
37412;DHT22;23278;52.110;6.050;2023-05-07T11:35:15;37.90;44.10
37412;DHT22;23278;52.110;6.050;2023-05-07T11:37:44;37.40;43.30
37412;DHT22;23278;52.110;6.050;2023-05-07T11:40:12;37.60;43.30
37412;DHT22;23278;52.110;6.050;2023-05-07T11:42:40;38.10;42.50
37412;DHT22;23278;52.110;6.050;2023-05-07T11:45:08;37.80;42.20
37412;DHT22;23278;52.110;6.050;2023-05-07T11:47:35;37.30;42.30
37412;DHT22;23278;52.110;6.050;2023-05-07T11:50:08;36.80;42.60
37412;DHT22;23278;52.110;6.050;2023-05-07T11:52:36;37.00;42.60
37412;DHT22;23278;52.110;6.050;2023-05-07T11:55:03;38.10;41.70
37412;DHT22;23278;52.110;6.050;2023-05-07T11:57:32;38.70;40.90
37412;DHT22;23278;52.110;6.050;2023-05-07T11:59:59;39.00;40.40
37412;DHT22;23278;52.110;6.050;2023-05-07T12:02:28;39.50;39.00
37412;DHT22;23278;52.110;6.050;2023-05-07T12:04:54;39.40;39.40
37412;DHT22;23278;52.110;6.050;2023-05-07T12:07:20;39.20;39.10
37412;DHT22;23278;52.110;6.050;2023-05-07T12:09:47;39.30;38.90
37412;DHT22;23278;52.110;6.050;2023-05-07T12:12:14;39.40;39.20
37412;DHT22;23278;52.110;6.050;2023-05-07T12:14:45;39.40;39.10
37412;DHT22;23278;52.110;6.050;2023-05-07T12:17:13;38.00;39.40
37412;DHT22;23278;52.110;6.050;2023-05-07T12:19:41;36.60;41.10
37412;DHT22;23278;52.110;6.050;2023-05-07T12:22:08;35.50;41.90
37412;DHT22;23278;52.110;6.050;2023-05-07T12:24:58;34.50;43.30
37412;DHT22;23278;52.110;6.050;2023-05-07T12:27:25;33.40;44.50
37412;DHT22;23278;52.110;6.050;2023-05-07T12:29:52;32.50;45.40
37412;DHT22;23278;52.110;6.050;2023-05-07T12:32:21;32.00;46.20
37412;DHT22;23278;52.110;6.050;2023-05-07T12:34:50;31.50;46.80
37412;DHT22;23278;52.110;6.050;2023-05-07T12:37:23;31.20;47.90
37412;DHT22;23278;52.110;6.050;2023-05-07T12:40:03;31.00;47.90
37412;DHT22;23278;52.110;6.050;2023-05-07T12:42:35;31.00;47.80
37412;DHT22;23278;52.110;6.050;2023-05-07T12:45:28;31.30;47.30
37412;DHT22;23278;52.110;6.050;2023-05-07T12:47:54;31.40;46.80
37412;DHT22;23278;52.110;6.050;2023-05-07T12:50:21;31.50;46.70
37412;DHT22;23278;52.110;6.050;2023-05-07T12:52:48;31.70;46.00
37412;DHT22;23278;52.110;6.050;2023-05-07T12:55:15;31.60;46.10
37412;DHT22;23278;52.110;6.050;2023-05-07T12:57:45;31.50;46.00
37412;DHT22;23278;52.110;6.050;2023-05-07T13:00:13;31.30;46.80
37412;DHT22;23278;52.110;6.050;2023-05-07T13:02:42;31.30;46.80
37412;DHT22;23278;52.110;6.050;2023-05-07T13:05:11;31.80;45.90
37412;DHT22;23278;52.110;6.050;2023-05-07T13:07:37;31.90;45.90
37412;DHT22;23278;52.110;6.050;2023-05-07T13:10:04;31.50;46.20
37412;DHT22;23278;52.110;6.050;2023-05-07T13:12:30;31.00;47.30
37412;DHT22;23278;52.110;6.050;2023-05-07T13:14:56;30.50;48.20
37412;DHT22;23278;52.110;6.050;2023-05-07T13:17:22;30.10;48.90
37412;DHT22;23278;52.110;6.050;2023-05-07T13:19:48;29.90;49.50
37412;DHT22;23278;52.110;6.050;2023-05-07T13:22:15;29.80;49.80
37412;DHT22;23278;52.110;6.050;2023-05-07T13:24:41;29.50;50.20
37412;DHT22;23278;52.110;6.050;2023-05-07T13:27:09;29.20;50.70
37412;DHT22;23278;52.110;6.050;2023-05-07T13:29:35;29.10;50.80
37412;DHT22;23278;52.110;6.050;2023-05-07T13:32:01;28.80;50.80
37412;DHT22;23278;52.110;6.050;2023-05-07T13:34:28;28.40;51.30
37412;DHT22;23278;52.110;6.050;2023-05-07T13:36:54;28.00;51.90
37412;DHT22;23278;52.110;6.050;2023-05-07T13:39:20;27.70;52.60
37412;DHT22;23278;52.110;6.050;2023-05-07T13:41:46;27.60;53.20
37412;DHT22;23278;52.110;6.050;2023-05-07T13:44:12;27.30;53.80
37412;DHT22;23278;52.110;6.050;2023-05-07T13:46:38;27.00;54.50
37412;DHT22;23278;52.110;6.050;2023-05-07T13:49:04;26.70;55.20
37412;DHT22;23278;52.110;6.050;2023-05-07T13:51:30;26.40;55.50
37412;DHT22;23278;52.110;6.050;2023-05-07T13:53:57;26.20;56.30
37412;DHT22;23278;52.110;6.050;2023-05-07T13:56:24;26.00;56.50
37412;DHT22;23278;52.110;6.050;2023-05-07T13:58:50;25.80;56.90
37412;DHT22;23278;52.110;6.050;2023-05-07T14:01:16;25.60;57.30
37412;DHT22;23278;52.110;6.050;2023-05-07T14:03:42;25.40;57.70
37412;DHT22;23278;52.110;6.050;2023-05-07T14:06:08;25.40;57.90
37412;DHT22;23278;52.110;6.050;2023-05-07T14:08:34;25.40;58.10
37412;DHT22;23278;52.110;6.050;2023-05-07T14:11:00;25.40;58.60
37412;DHT22;23278;52.110;6.050;2023-05-07T14:13:26;25.30;58.70
37412;DHT22;23278;52.110;6.050;2023-05-07T14:15:52;25.30;58.60
37412;DHT22;23278;52.110;6.050;2023-05-07T14:18:18;25.20;58.90
37412;DHT22;23278;52.110;6.050;2023-05-07T14:20:44;25.20;59.00
37412;DHT22;23278;52.110;6.050;2023-05-07T14:23:12;25.10;59.90
37412;DHT22;23278;52.110;6.050;2023-05-07T14:25:38;24.90;61.00
37412;DHT22;23278;52.110;6.050;2023-05-07T14:28:04;24.70;61.60
37412;DHT22;23278;52.110;6.050;2023-05-07T14:30:30;24.60;62.20
37412;DHT22;23278;52.110;6.050;2023-05-07T14:32:56;24.50;63.20
37412;DHT22;23278;52.110;6.050;2023-05-07T14:35:22;24.40;63.80
37412;DHT22;23278;52.110;6.050;2023-05-07T14:37:48;24.40;64.20
37412;DHT22;23278;52.110;6.050;2023-05-07T14:40:14;24.40;64.60
37412;DHT22;23278;52.110;6.050;2023-05-07T14:42:41;24.40;64.40
37412;DHT22;23278;52.110;6.050;2023-05-07T14:45:07;24.50;64.10
37412;DHT22;23278;52.110;6.050;2023-05-07T14:47:34;24.60;64.10
37412;DHT22;23278;52.110;6.050;2023-05-07T14:50:00;24.60;65.00
37412;DHT22;23278;52.110;6.050;2023-05-07T14:52:26;24.60;66.30
37412;DHT22;23278;52.110;6.050;2023-05-07T14:54:52;24.50;67.00
37412;DHT22;23278;52.110;6.050;2023-05-07T14:57:18;24.50;67.80
37412;DHT22;23278;52.110;6.050;2023-05-07T14:59:45;24.40;68.50
37412;DHT22;23278;52.110;6.050;2023-05-07T15:02:13;24.40;68.10
37412;DHT22;23278;52.110;6.050;2023-05-07T15:04:39;24.60;68.00
37412;DHT22;23278;52.110;6.050;2023-05-07T15:07:15;24.60;67.50
37412;DHT22;23278;52.110;6.050;2023-05-07T15:09:42;24.60;66.90
37412;DHT22;23278;52.110;6.050;2023-05-07T15:12:08;24.60;67.00
37412;DHT22;23278;52.110;6.050;2023-05-07T15:14:34;24.50;67.40
37412;DHT22;23278;52.110;6.050;2023-05-07T15:17:00;24.40;68.20
37412;DHT22;23278;52.110;6.050;2023-05-07T15:19:27;24.30;68.50
37412;DHT22;23278;52.110;6.050;2023-05-07T15:21:57;24.30;68.90
37412;DHT22;23278;52.110;6.050;2023-05-07T15:24:24;24.20;69.20
37412;DHT22;23278;52.110;6.050;2023-05-07T15:26:51;24.20;69.70
37412;DHT22;23278;52.110;6.050;2023-05-07T15:29:18;24.10;70.10
37412;DHT22;23278;52.110;6.050;2023-05-07T15:31:44;24.00;70.60
37412;DHT22;23278;52.110;6.050;2023-05-07T15:34:10;23.90;71.40
37412;DHT22;23278;52.110;6.050;2023-05-07T15:36:36;23.80;71.80
37412;DHT22;23278;52.110;6.050;2023-05-07T15:39:02;23.80;72.50
37412;DHT22;23278;52.110;6.050;2023-05-07T15:41:29;23.70;73.20
37412;DHT22;23278;52.110;6.050;2023-05-07T15:43:55;23.70;73.40
37412;DHT22;23278;52.110;6.050;2023-05-07T15:46:22;23.70;73.90